createdAt,value
2017-03-24T00:00:33.823Z,43.00
2017-03-24T00:01:34.843Z,41.00
2017-03-24T00:02:35.803Z,38.00
2017-03-24T00:03:36.575Z,36.00
2017-03-24T00:04:37.346Z,36.00
2017-03-24T00:05:38.115Z,39.00
2017-03-24T00:06:39.139Z,36.00
2017-03-24T00:07:39.910Z,47.00
2017-03-24T00:08:40.679Z,36.00
2017-03-24T00:09:41.450Z,41.00
2017-03-24T00:10:42.225Z,37.00
2017-03-24T00:11:43.245Z,35.00
2017-03-24T00:12:44.014Z,38.00
2017-03-24T00:13:44.792Z,37.00
2017-03-24T00:14:45.560Z,33.00
2017-03-24T00:15:46.326Z,40.00
2017-03-24T00:16:47.350Z,35.00
2017-03-24T00:17:48.122Z,37.00
2017-03-24T00:18:48.931Z,36.00
2017-03-24T00:19:49.666Z,38.00
2017-03-24T00:20:50.437Z,39.00
2017-03-24T00:21:51.460Z,32.00
2017-03-24T00:22:52.229Z,41.00
2017-03-24T00:23:53.000Z,36.00
2017-03-24T00:24:53.771Z,37.00
2017-03-24T00:25:54.544Z,36.00
2017-03-24T00:26:55.564Z,38.00
2017-03-24T00:27:56.336Z,33.00
2017-03-24T00:28:57.132Z,36.00
2017-03-24T00:29:58.113Z,42.00
2017-03-24T00:30:58.885Z,39.00
2017-03-24T00:31:59.909Z,41.00
2017-03-24T00:33:00.681Z,39.00
2017-03-24T00:34:01.449Z,36.00
2017-03-24T00:35:02.222Z,45.00
2017-03-24T00:36:02.990Z,37.00
2017-03-24T00:37:04.012Z,34.00
2017-03-24T00:38:04.784Z,40.00
2017-03-24T00:39:05.554Z,39.00
2017-03-24T00:40:06.326Z,36.00
2017-03-24T00:41:07.099Z,36.00
2017-03-24T00:42:08.123Z,40.00
2017-03-24T00:43:08.890Z,40.00
2017-03-24T00:44:09.662Z,32.00
2017-03-24T00:45:10.434Z,33.00
2017-03-24T00:46:11.203Z,32.00
2017-03-24T00:47:12.225Z,40.00
2017-03-24T00:48:12.995Z,37.00
2017-03-24T00:49:13.767Z,38.00
2017-03-24T00:50:14.537Z,38.00
2017-03-24T00:51:15.308Z,34.00
2017-03-24T00:52:16.328Z,37.00
2017-03-24T00:53:17.100Z,37.00
2017-03-24T00:54:17.873Z,40.00
2017-03-24T00:55:18.641Z,35.00
2017-03-24T00:56:19.414Z,34.00
2017-03-24T00:57:20.438Z,36.00
2017-03-24T00:58:21.208Z,42.00
2017-03-24T00:59:21.982Z,33.00
2017-03-24T01:00:22.751Z,35.00
2017-03-24T01:01:23.523Z,38.00
2017-03-24T01:02:24.546Z,36.00
2017-03-24T01:03:25.319Z,38.00
2017-03-24T01:04:26.089Z,37.00
2017-03-24T01:05:26.861Z,32.00
2017-03-24T01:06:27.631Z,40.00
2017-03-24T01:07:28.654Z,34.00
2017-03-24T01:08:29.426Z,37.00
2017-03-24T01:09:30.197Z,34.00
2017-03-24T01:10:30.968Z,43.00
2017-03-24T01:11:31.739Z,36.00
2017-03-24T01:12:32.759Z,39.00
2017-03-24T01:13:33.531Z,33.00
2017-03-24T01:14:34.489Z,35.00
2017-03-24T01:15:35.261Z,33.00
2017-03-24T01:16:36.032Z,36.00
2017-03-24T01:17:37.052Z,38.00
2017-03-24T01:18:37.824Z,31.00
2017-03-24T01:19:38.595Z,30.00
2017-03-24T01:20:39.368Z,34.00
2017-03-24T01:21:40.146Z,31.00
2017-03-24T01:22:41.161Z,32.00
2017-03-24T01:23:41.933Z,27.00
2017-03-24T01:24:42.705Z,31.00
2017-03-24T01:25:43.476Z,34.00
2017-03-24T01:26:44.248Z,35.00
2017-03-24T01:27:45.271Z,33.00
2017-03-24T01:28:46.041Z,35.00
2017-03-24T01:29:46.812Z,29.00
2017-03-24T01:30:47.584Z,34.00
2017-03-24T01:31:48.357Z,32.00
2017-03-24T01:32:49.377Z,33.00
2017-03-24T01:33:50.150Z,31.00
2017-03-24T01:34:50.920Z,31.00
2017-03-24T01:35:51.692Z,33.00
2017-03-24T01:36:52.461Z,29.00
2017-03-24T01:37:53.482Z,34.00
2017-03-24T01:38:54.253Z,33.00
2017-03-24T01:39:55.026Z,34.00
2017-03-24T01:40:55.796Z,35.00
2017-03-24T01:41:56.623Z,33.00
2017-03-24T01:42:57.671Z,32.00
2017-03-24T01:43:58.438Z,28.00
2017-03-24T01:44:59.207Z,35.00
2017-03-24T01:45:59.988Z,31.00
2017-03-24T01:47:00.755Z,34.00
2017-03-24T01:48:02.376Z,36.00
2017-03-24T01:49:03.156Z,33.00
2017-03-24T01:50:03.918Z,29.00
2017-03-24T01:51:04.688Z,35.00
2017-03-24T01:52:05.461Z,35.00
2017-03-24T01:53:06.531Z,32.00
2017-03-24T01:54:07.302Z,32.00
2017-03-24T01:55:08.073Z,34.00
2017-03-24T01:56:08.849Z,31.00
2017-03-24T01:57:09.617Z,34.00
2017-03-24T01:58:10.690Z,34.00
2017-03-24T01:59:11.651Z,36.00
2017-03-24T02:00:12.420Z,36.00
2017-03-24T02:01:13.191Z,32.00
2017-03-24T02:02:13.961Z,32.00
2017-03-24T02:03:15.032Z,31.00
2017-03-24T02:04:15.803Z,33.00
2017-03-24T02:05:16.575Z,35.00
2017-03-24T02:06:17.345Z,33.00
2017-03-24T02:07:18.117Z,35.00
2017-03-24T02:08:19.188Z,35.00
2017-03-24T02:09:19.961Z,30.00
2017-03-24T02:10:20.732Z,38.00
2017-03-24T02:11:21.506Z,31.00
2017-03-24T02:12:22.278Z,32.00
2017-03-24T02:13:23.347Z,32.00
2017-03-24T02:14:24.120Z,32.00
2017-03-24T02:15:24.892Z,33.00
2017-03-24T02:16:25.664Z,33.00
2017-03-24T02:17:26.437Z,35.00
2017-03-24T02:18:27.508Z,35.00
2017-03-24T02:19:28.279Z,34.00
2017-03-24T02:20:29.049Z,33.00
2017-03-24T02:21:29.821Z,31.00
2017-03-24T02:22:30.592Z,33.00
2017-03-24T02:23:31.613Z,33.00
2017-03-24T02:24:32.385Z,36.00
2017-03-24T02:25:33.158Z,37.00
2017-03-24T02:26:33.930Z,35.00
2017-03-24T02:27:34.703Z,32.00
2017-03-24T02:28:35.720Z,33.00
2017-03-24T02:29:36.489Z,40.00
2017-03-24T02:30:37.263Z,31.00
2017-03-24T02:31:38.033Z,38.00
2017-03-24T02:32:38.805Z,30.00
2017-03-24T02:33:39.825Z,29.00
2017-03-24T02:34:40.598Z,31.00
2017-03-24T02:35:41.370Z,31.00
2017-03-24T02:36:42.142Z,30.00
2017-03-24T02:37:42.913Z,31.00
2017-03-24T02:38:43.938Z,32.00
2017-03-24T02:39:44.703Z,30.00
2017-03-24T02:40:45.475Z,29.00
2017-03-24T02:41:46.244Z,34.00
2017-03-24T02:42:47.016Z,32.00
2017-03-24T02:43:48.038Z,33.00
2017-03-24T02:44:48.810Z,27.00
2017-03-24T02:45:49.582Z,30.00
2017-03-24T02:46:50.353Z,33.00
2017-03-24T02:47:51.124Z,32.00
2017-03-24T02:48:52.144Z,31.00
2017-03-24T02:49:53.033Z,31.00
2017-03-24T02:50:53.804Z,30.00
2017-03-24T02:51:54.575Z,30.00
2017-03-24T02:52:55.346Z,32.00
2017-03-24T02:53:56.365Z,30.00
2017-03-24T02:54:57.138Z,28.00
2017-03-24T02:55:57.909Z,27.00
2017-03-24T02:56:58.680Z,27.00
2017-03-24T02:57:59.450Z,30.00
2017-03-24T02:59:00.473Z,26.00
2017-03-24T03:00:01.243Z,28.00
2017-03-24T03:01:02.015Z,26.00
2017-03-24T03:02:02.786Z,27.00
2017-03-24T03:03:03.745Z,32.00
2017-03-24T03:04:04.763Z,25.00
2017-03-24T03:05:05.535Z,28.00
2017-03-24T03:06:06.304Z,27.00
2017-03-24T03:07:07.074Z,29.00
2017-03-24T03:08:07.844Z,29.00
2017-03-24T03:09:08.865Z,29.00
2017-03-24T03:10:09.635Z,27.00
2017-03-24T03:11:10.407Z,27.00
2017-03-24T03:12:11.179Z,29.00
2017-03-24T03:13:11.949Z,25.00
2017-03-24T03:14:12.970Z,29.00
2017-03-24T03:15:13.738Z,28.00
2017-03-24T03:16:14.509Z,24.00
2017-03-24T03:17:15.280Z,23.00
2017-03-24T03:18:16.050Z,26.00
2017-03-24T03:19:17.158Z,23.00
2017-03-24T03:20:17.949Z,23.00
2017-03-24T03:21:18.721Z,26.00
2017-03-24T03:22:19.492Z,22.00
2017-03-24T03:23:20.261Z,22.00
2017-03-24T03:24:21.284Z,25.00
2017-03-24T03:25:22.053Z,25.00
2017-03-24T03:26:22.823Z,26.00
2017-03-24T03:27:23.595Z,21.00
2017-03-24T03:28:24.368Z,23.00
2017-03-24T03:29:25.386Z,28.00
2017-03-24T03:30:26.157Z,23.00
2017-03-24T03:31:26.927Z,22.00
2017-03-24T03:32:27.699Z,23.00
2017-03-24T03:33:28.468Z,19.00
2017-03-24T03:34:29.540Z,22.00
2017-03-24T03:35:30.311Z,20.00
2017-03-24T03:36:31.082Z,18.00
2017-03-24T03:37:31.854Z,26.00
2017-03-24T03:38:32.624Z,21.00
2017-03-24T03:39:33.645Z,23.00
2017-03-24T03:40:34.417Z,23.00
2017-03-24T03:41:35.188Z,20.00
2017-03-24T03:42:35.960Z,22.00
2017-03-24T03:43:36.731Z,21.00
2017-03-24T03:44:37.751Z,22.00
2017-03-24T03:45:38.524Z,23.00
2017-03-24T03:46:39.296Z,23.00
2017-03-24T03:47:40.066Z,22.00
2017-03-24T03:48:40.833Z,22.00
2017-03-24T03:49:41.858Z,22.00
2017-03-24T03:50:42.626Z,19.00
2017-03-24T03:51:43.396Z,23.00
2017-03-24T03:52:44.164Z,25.00
2017-03-24T03:53:44.934Z,24.00
2017-03-24T03:54:45.955Z,27.00
2017-03-24T03:55:46.727Z,26.00
2017-03-24T03:56:47.495Z,24.00
2017-03-24T03:57:48.264Z,23.00
2017-03-24T03:58:49.034Z,24.00
2017-03-24T03:59:50.055Z,22.00
2017-03-24T04:00:50.829Z,24.00
2017-03-24T04:01:51.600Z,21.00
2017-03-24T04:02:52.369Z,23.00
2017-03-24T04:03:53.139Z,22.00
2017-03-24T04:04:54.156Z,20.00
2017-03-24T04:05:54.925Z,26.00
2017-03-24T04:06:55.878Z,21.00
2017-03-24T04:07:56.649Z,21.00
2017-03-24T04:08:57.417Z,21.00
2017-03-24T04:09:58.488Z,21.00
2017-03-24T04:10:59.254Z,26.00
2017-03-24T04:12:00.020Z,21.00
2017-03-24T04:13:00.788Z,25.00
2017-03-24T04:14:01.558Z,18.00
2017-03-24T04:15:02.626Z,20.00
2017-03-24T04:16:03.395Z,20.00
2017-03-24T04:17:04.163Z,21.00
2017-03-24T04:18:04.932Z,22.00
2017-03-24T04:19:05.700Z,22.00
2017-03-24T04:20:06.767Z,18.00
2017-03-24T04:21:07.535Z,22.00
2017-03-24T04:22:08.303Z,21.00
2017-03-24T04:23:09.073Z,25.00
2017-03-24T04:24:09.840Z,21.00
2017-03-24T04:25:10.859Z,23.00
2017-03-24T04:26:11.630Z,23.00
2017-03-24T04:27:12.403Z,23.00
2017-03-24T04:28:13.172Z,25.00
2017-03-24T04:29:13.941Z,24.00
2017-03-24T04:30:15.008Z,24.00
2017-03-24T04:31:15.776Z,25.00
2017-03-24T04:32:16.545Z,23.00
2017-03-24T04:33:17.313Z,24.00
2017-03-24T04:34:18.079Z,25.00
2017-03-24T04:35:19.244Z,27.00
2017-03-24T04:36:20.003Z,25.00
2017-03-24T04:37:20.775Z,23.00
2017-03-24T04:38:21.538Z,26.00
2017-03-24T04:39:22.307Z,25.00
2017-03-24T04:40:23.376Z,24.00
2017-03-24T04:41:24.148Z,25.00
2017-03-24T04:42:24.913Z,25.00
2017-03-24T04:43:25.686Z,27.00
2017-03-24T04:44:26.455Z,27.00
2017-03-24T04:45:27.476Z,25.00
2017-03-24T04:46:28.242Z,23.00
2017-03-24T04:47:29.010Z,30.00
2017-03-24T04:48:29.777Z,24.00
2017-03-24T04:49:30.548Z,24.00
2017-03-24T04:50:31.567Z,23.00
2017-03-24T04:51:32.337Z,23.00
2017-03-24T04:52:33.106Z,24.00
2017-03-24T04:53:33.874Z,23.00
2017-03-24T04:54:34.643Z,27.00
2017-03-24T04:55:35.662Z,24.00
2017-03-24T04:56:36.434Z,22.00
2017-03-24T04:57:37.206Z,23.00
2017-03-24T04:58:37.974Z,23.00
2017-03-24T04:59:38.738Z,24.00
2017-03-24T05:00:39.758Z,22.00
2017-03-24T05:01:40.525Z,23.00
2017-03-24T05:02:41.292Z,25.00
2017-03-24T05:03:42.064Z,25.00
2017-03-24T05:04:42.833Z,22.00
2017-03-24T05:05:43.852Z,27.00
2017-03-24T05:06:44.622Z,25.00
2017-03-24T05:07:45.392Z,25.00
2017-03-24T05:08:46.162Z,27.00
2017-03-24T05:09:46.933Z,20.00
2017-03-24T05:10:48.001Z,26.00
2017-03-24T05:11:48.773Z,23.00
2017-03-24T05:12:49.541Z,25.00
2017-03-24T05:13:50.308Z,22.00
2017-03-24T05:14:51.079Z,24.00
2017-03-24T05:15:52.101Z,22.00
2017-03-24T05:16:52.869Z,21.00
2017-03-24T05:17:53.644Z,27.00
2017-03-24T05:18:54.412Z,21.00
2017-03-24T05:19:55.366Z,26.00
2017-03-24T05:20:56.388Z,22.00
2017-03-24T05:21:57.162Z,23.00
2017-03-24T05:22:57.937Z,25.00
2017-03-24T05:23:58.708Z,24.00
2017-03-24T05:24:59.482Z,25.00
2017-03-24T05:26:00.497Z,23.00
2017-03-24T05:27:01.269Z,22.00
2017-03-24T05:28:02.041Z,21.00
2017-03-24T05:29:02.809Z,23.00
2017-03-24T05:30:03.581Z,24.00
2017-03-24T05:31:04.606Z,21.00
2017-03-24T05:32:05.379Z,20.00
2017-03-24T05:33:06.148Z,22.00
2017-03-24T05:34:06.924Z,23.00
2017-03-24T05:35:07.696Z,20.00
2017-03-24T05:36:08.717Z,23.00
2017-03-24T05:37:09.488Z,23.00
2017-03-24T05:38:10.260Z,22.00
2017-03-24T05:39:11.033Z,24.00
2017-03-24T05:40:11.803Z,23.00
2017-03-24T05:41:12.822Z,21.00
2017-03-24T05:42:13.597Z,20.00
2017-03-24T05:43:14.372Z,22.00
2017-03-24T05:44:15.142Z,22.00
2017-03-24T05:45:15.912Z,27.00
2017-03-24T05:46:16.936Z,22.00
2017-03-24T05:47:17.711Z,24.00
2017-03-24T05:48:18.526Z,22.00
2017-03-24T05:49:20.213Z,23.00
2017-03-24T05:50:20.988Z,23.00
2017-03-24T05:51:22.012Z,20.00
2017-03-24T05:52:22.784Z,23.00
2017-03-24T05:53:23.559Z,26.00
2017-03-24T05:54:24.340Z,24.00
2017-03-24T05:55:25.107Z,23.00
2017-03-24T05:56:26.128Z,22.00
2017-03-24T05:57:26.906Z,23.00
2017-03-24T05:58:27.680Z,19.00
2017-03-24T05:59:28.451Z,20.00
2017-03-24T06:00:29.231Z,22.00
2017-03-24T06:01:30.320Z,23.00
2017-03-24T06:02:31.099Z,25.00
2017-03-24T06:03:31.871Z,21.00
2017-03-24T06:04:32.648Z,22.00
2017-03-24T06:05:33.424Z,23.00
2017-03-24T06:06:34.547Z,25.00
2017-03-24T06:07:35.327Z,21.00
2017-03-24T06:08:36.097Z,23.00
2017-03-24T06:09:36.870Z,21.00
2017-03-24T06:10:37.649Z,23.00
2017-03-24T06:11:38.769Z,20.00
2017-03-24T06:12:39.541Z,22.00
2017-03-24T06:13:40.314Z,23.00
2017-03-24T06:14:41.086Z,24.00
2017-03-24T06:15:42.046Z,20.00
2017-03-24T06:16:43.119Z,21.00
2017-03-24T06:17:43.893Z,21.00
2017-03-24T06:18:44.668Z,23.00
2017-03-24T06:19:45.445Z,23.00
2017-03-24T06:20:46.217Z,19.00
2017-03-24T06:21:47.291Z,22.00
2017-03-24T06:22:48.070Z,19.00
2017-03-24T06:23:48.853Z,22.00
2017-03-24T06:24:49.622Z,18.00
2017-03-24T06:25:50.400Z,24.00
2017-03-24T06:26:51.501Z,20.00
2017-03-24T06:27:52.258Z,20.00
2017-03-24T06:28:53.035Z,19.00
2017-03-24T06:29:53.811Z,20.00
2017-03-24T06:30:54.588Z,20.00
2017-03-24T06:31:55.667Z,17.00
2017-03-24T06:32:56.445Z,21.00
2017-03-24T06:33:57.223Z,19.00
2017-03-24T06:34:58.002Z,21.00
2017-03-24T06:35:58.779Z,21.00
2017-03-24T06:36:59.854Z,19.00
2017-03-24T06:38:00.630Z,17.00
2017-03-24T06:39:01.406Z,21.00
2017-03-24T06:40:02.185Z,18.00
2017-03-24T06:41:02.965Z,21.00
2017-03-24T06:42:03.990Z,18.00
2017-03-24T06:43:04.769Z,20.00
2017-03-24T06:44:05.732Z,19.00
2017-03-24T06:45:06.507Z,20.00
2017-03-24T06:46:07.283Z,18.00
2017-03-24T06:47:08.312Z,22.00
2017-03-24T06:48:09.095Z,21.00
2017-03-24T06:49:09.871Z,21.00
2017-03-24T06:50:10.647Z,17.00
2017-03-24T06:51:11.424Z,20.00
2017-03-24T06:52:12.451Z,18.00
2017-03-24T06:53:13.230Z,20.00
2017-03-24T06:54:14.008Z,20.00
2017-03-24T06:55:14.788Z,20.00
2017-03-24T06:56:15.569Z,22.00
2017-03-24T06:57:16.600Z,17.00
2017-03-24T06:58:17.378Z,17.00
2017-03-24T06:59:18.158Z,20.00
2017-03-24T07:00:18.941Z,19.00
2017-03-24T07:01:19.719Z,18.00
2017-03-24T07:02:20.753Z,19.00
2017-03-24T07:03:21.533Z,21.00
2017-03-24T07:04:22.317Z,20.00
2017-03-24T07:05:23.097Z,19.00
2017-03-24T07:06:23.878Z,20.00
2017-03-24T07:07:24.911Z,18.00
2017-03-24T07:08:25.694Z,19.00
2017-03-24T07:09:26.475Z,19.00
2017-03-24T07:10:27.257Z,20.00
2017-03-24T07:11:28.038Z,20.00
2017-03-24T07:12:29.069Z,19.00
2017-03-24T07:13:29.853Z,20.00
2017-03-24T07:14:30.635Z,18.00
2017-03-24T07:15:31.420Z,19.00
2017-03-24T07:16:32.202Z,19.00
2017-03-24T07:17:33.240Z,16.00
2017-03-24T07:18:34.024Z,17.00
2017-03-24T07:19:34.807Z,23.00
2017-03-24T07:20:35.591Z,20.00
2017-03-24T07:21:36.376Z,20.00
2017-03-24T07:22:37.413Z,16.00
2017-03-24T07:23:38.198Z,16.00
2017-03-24T07:24:38.982Z,18.00
2017-03-24T07:25:39.769Z,20.00
2017-03-24T07:26:40.554Z,19.00
2017-03-24T07:27:41.588Z,17.00
2017-03-24T07:28:42.370Z,21.00
2017-03-24T07:29:43.154Z,19.00
2017-03-24T07:30:43.938Z,21.00
2017-03-24T07:31:44.722Z,18.00
2017-03-24T07:32:45.757Z,19.00
2017-03-24T07:33:46.540Z,18.00
2017-03-24T07:34:47.325Z,19.00
2017-03-24T07:35:48.112Z,21.00
2017-03-24T07:36:48.897Z,20.00
2017-03-24T07:37:49.933Z,22.00
2017-03-24T07:38:50.719Z,19.00
2017-03-24T07:39:51.502Z,20.00
2017-03-24T07:40:52.287Z,21.00
2017-03-24T07:41:53.074Z,18.00
2017-03-24T07:42:54.111Z,17.00
2017-03-24T07:43:54.905Z,18.00
2017-03-24T07:44:55.687Z,21.00
2017-03-24T07:45:56.470Z,19.00
2017-03-24T07:46:57.258Z,20.00
2017-03-24T07:47:58.292Z,17.00
2017-03-24T07:48:59.081Z,16.00
2017-03-24T07:49:59.869Z,20.00
2017-03-24T07:51:00.654Z,17.00
2017-03-24T07:52:01.436Z,17.00
2017-03-24T07:53:02.473Z,18.00
2017-03-24T07:54:03.257Z,19.00
2017-03-24T07:55:04.047Z,21.00
2017-03-24T07:56:04.832Z,16.00
2017-03-24T07:57:05.618Z,17.00
2017-03-24T07:58:06.658Z,16.00
2017-03-24T07:59:07.442Z,21.00
2017-03-24T08:00:08.228Z,19.00
2017-03-24T08:01:09.012Z,18.00
2017-03-24T08:02:09.798Z,19.00
2017-03-24T08:03:10.837Z,18.00
2017-03-24T08:04:11.620Z,16.00
2017-03-24T08:05:12.406Z,16.00
2017-03-24T08:06:13.197Z,17.00
2017-03-24T08:07:13.989Z,21.00
2017-03-24T08:08:15.029Z,17.00
2017-03-24T08:09:15.815Z,19.00
2017-03-24T08:10:16.602Z,17.00
2017-03-24T08:11:17.391Z,16.00
2017-03-24T08:12:18.177Z,17.00
2017-03-24T08:13:19.217Z,16.00
2017-03-24T08:14:20.192Z,16.00
2017-03-24T08:15:20.983Z,18.00
2017-03-24T08:16:21.768Z,17.00
2017-03-24T08:17:22.568Z,16.00
2017-03-24T08:18:23.603Z,13.00
2017-03-24T08:19:24.395Z,15.00
2017-03-24T08:20:25.182Z,17.00
2017-03-24T08:21:25.973Z,15.00
2017-03-24T08:22:26.768Z,17.00
2017-03-24T08:23:27.806Z,17.00
2017-03-24T08:24:28.600Z,16.00
2017-03-24T08:25:29.395Z,17.00
2017-03-24T08:26:30.187Z,17.00
2017-03-24T08:27:30.973Z,15.00
2017-03-24T08:28:32.021Z,16.00
2017-03-24T08:29:32.817Z,17.00
2017-03-24T08:30:33.621Z,19.00
2017-03-24T08:31:34.448Z,15.00
2017-03-24T08:32:35.242Z,17.00
2017-03-24T08:33:36.285Z,16.00
2017-03-24T08:34:37.082Z,17.00
2017-03-24T08:35:37.878Z,14.00
2017-03-24T08:36:38.673Z,17.00
2017-03-24T08:37:39.469Z,17.00
2017-03-24T08:38:40.511Z,16.00
2017-03-24T08:39:41.304Z,16.00
2017-03-24T08:40:42.098Z,15.00
2017-03-24T08:41:42.889Z,15.00
2017-03-24T08:42:43.683Z,16.00
2017-03-24T08:43:44.726Z,16.00
2017-03-24T08:44:45.519Z,17.00
2017-03-24T08:45:46.311Z,16.00
2017-03-24T08:46:47.110Z,14.00
2017-03-24T08:47:47.903Z,14.00
2017-03-24T08:48:48.949Z,16.00
2017-03-24T08:49:49.746Z,15.00
2017-03-24T08:50:50.541Z,17.00
2017-03-24T08:51:51.335Z,17.00
2017-03-24T08:52:52.130Z,19.00
2017-03-24T08:53:53.173Z,18.00
2017-03-24T08:54:53.967Z,16.00
2017-03-24T08:55:54.765Z,18.00
2017-03-24T08:56:55.561Z,15.00
2017-03-24T08:57:56.353Z,18.00
2017-03-24T08:58:57.403Z,17.00
2017-03-24T08:59:58.202Z,16.00
2017-03-24T09:00:58.995Z,18.00
2017-03-24T09:01:59.788Z,16.00
2017-03-24T09:03:00.584Z,16.00
2017-03-24T09:04:01.632Z,18.00
2017-03-24T09:05:02.430Z,15.00
2017-03-24T09:06:03.226Z,18.00
2017-03-24T09:07:04.024Z,18.00
2017-03-24T09:08:04.821Z,17.00
2017-03-24T09:09:05.870Z,17.00
2017-03-24T09:10:06.664Z,17.00
2017-03-24T09:11:07.459Z,18.00
2017-03-24T09:12:08.255Z,18.00
2017-03-24T09:13:09.055Z,20.00
2017-03-24T09:14:10.098Z,15.00
2017-03-24T09:15:10.892Z,17.00
2017-03-24T09:16:11.684Z,15.00
2017-03-24T09:17:12.477Z,17.00
2017-03-24T09:18:13.270Z,16.00
2017-03-24T09:19:14.317Z,17.00
2017-03-24T09:20:15.112Z,15.00
2017-03-24T09:21:15.903Z,14.00
2017-03-24T09:22:16.700Z,14.00
2017-03-24T09:23:17.497Z,17.00
2017-03-24T09:24:18.543Z,17.00
2017-03-24T09:25:19.337Z,15.00
2017-03-24T09:26:20.127Z,17.00
2017-03-24T09:27:20.920Z,16.00
2017-03-24T09:28:21.716Z,15.00
2017-03-24T09:29:22.946Z,14.00
2017-03-24T09:30:23.742Z,15.00
2017-03-24T09:31:24.538Z,17.00
2017-03-24T09:32:25.330Z,15.00
2017-03-24T09:33:26.126Z,16.00
2017-03-24T09:34:27.172Z,15.00
2017-03-24T09:35:27.966Z,17.00
2017-03-24T09:36:28.758Z,14.00
2017-03-24T09:37:29.554Z,15.00
2017-03-24T09:38:30.353Z,14.00
2017-03-24T09:39:31.394Z,17.00
2017-03-24T09:40:32.189Z,15.00
2017-03-24T09:41:32.982Z,15.00
2017-03-24T09:42:33.775Z,14.00
2017-03-24T09:43:34.574Z,15.00
2017-03-24T09:44:35.621Z,14.00
2017-03-24T09:45:36.410Z,16.00
2017-03-24T09:46:37.204Z,15.00
2017-03-24T09:47:38.000Z,14.00
2017-03-24T09:48:38.790Z,15.00
2017-03-24T09:49:39.840Z,15.00
2017-03-24T09:50:40.632Z,17.00
2017-03-24T09:51:41.427Z,15.00
2017-03-24T09:52:42.223Z,18.00
2017-03-24T09:53:43.017Z,14.00
2017-03-24T09:54:44.060Z,17.00
2017-03-24T09:55:44.852Z,16.00
2017-03-24T09:56:45.645Z,15.00
2017-03-24T09:57:46.447Z,16.00
2017-03-24T09:58:47.240Z,16.00
2017-03-24T09:59:48.287Z,18.00
2017-03-24T10:00:49.083Z,14.00
2017-03-24T10:01:49.876Z,17.00
2017-03-24T10:02:50.669Z,16.00
2017-03-24T10:03:51.462Z,13.00
2017-03-24T10:04:52.512Z,17.00
2017-03-24T10:05:53.305Z,16.00
2017-03-24T10:06:54.102Z,14.00
2017-03-24T10:07:54.893Z,14.00
2017-03-24T10:08:55.692Z,15.00
2017-03-24T10:09:56.739Z,14.00
2017-03-24T10:10:57.532Z,14.00
2017-03-24T10:11:58.325Z,13.00
2017-03-24T10:12:59.118Z,14.00
2017-03-24T10:13:59.916Z,17.00
2017-03-24T10:15:00.963Z,12.00
2017-03-24T10:16:01.755Z,15.00
2017-03-24T10:17:02.548Z,13.00
2017-03-24T10:18:03.342Z,14.00
2017-03-24T10:19:04.133Z,14.00
2017-03-24T10:20:05.181Z,15.00
2017-03-24T10:21:05.972Z,13.00
2017-03-24T10:22:06.776Z,16.00
2017-03-24T10:23:07.564Z,16.00
2017-03-24T10:24:08.360Z,16.00
2017-03-24T10:25:09.413Z,13.00
2017-03-24T10:26:10.205Z,13.00
2017-03-24T10:27:10.999Z,15.00
2017-03-24T10:28:11.795Z,15.00
2017-03-24T10:29:12.591Z,14.00
2017-03-24T10:30:13.642Z,14.00
2017-03-24T10:31:14.431Z,15.00
2017-03-24T10:32:15.227Z,14.00
2017-03-24T10:33:16.025Z,15.00
2017-03-24T10:34:16.822Z,14.00
2017-03-24T10:35:17.870Z,16.00
2017-03-24T10:36:18.662Z,15.00
2017-03-24T10:37:19.643Z,16.00
2017-03-24T10:38:20.435Z,17.00
2017-03-24T10:39:21.229Z,18.00
2017-03-24T10:40:22.278Z,20.00
2017-03-24T10:41:23.076Z,16.00
2017-03-24T10:42:23.869Z,14.00
2017-03-24T10:43:24.667Z,16.00
2017-03-24T10:44:25.457Z,15.00
2017-03-24T10:45:26.550Z,15.00
2017-03-24T10:46:27.344Z,15.00
2017-03-24T10:47:28.142Z,15.00
2017-03-24T10:48:28.938Z,19.00
2017-03-24T10:49:29.733Z,14.00
2017-03-24T10:50:30.782Z,12.00
2017-03-24T10:51:31.575Z,12.00
2017-03-24T10:52:32.372Z,17.00
2017-03-24T10:53:33.175Z,16.00
2017-03-24T10:54:33.964Z,14.00
2017-03-24T10:55:35.012Z,14.00
2017-03-24T10:56:35.849Z,16.00
2017-03-24T10:57:36.607Z,15.00
2017-03-24T10:58:37.404Z,13.00
2017-03-24T10:59:38.204Z,13.00
2017-03-24T11:00:39.250Z,13.00
2017-03-24T11:01:40.049Z,15.00
2017-03-24T11:02:41.031Z,17.00
2017-03-24T11:03:41.827Z,15.00
2017-03-24T11:04:42.623Z,16.00
2017-03-24T11:05:43.674Z,13.00
2017-03-24T11:06:44.471Z,13.00
2017-03-24T11:07:45.457Z,13.00
2017-03-24T11:08:46.257Z,13.00
2017-03-24T11:09:47.054Z,14.00
2017-03-24T11:10:48.100Z,15.00
2017-03-24T11:11:48.900Z,14.00
2017-03-24T11:12:49.699Z,13.00
2017-03-24T11:13:50.497Z,13.00
2017-03-24T11:14:51.294Z,14.00
2017-03-24T11:15:52.346Z,13.00
2017-03-24T11:16:53.144Z,13.00
2017-03-24T11:17:53.939Z,15.00
2017-03-24T11:18:54.736Z,14.00
2017-03-24T11:19:55.537Z,14.00
2017-03-24T11:20:56.582Z,14.00
2017-03-24T11:21:57.378Z,15.00
2017-03-24T11:22:58.362Z,13.00
2017-03-24T11:23:59.157Z,11.00
2017-03-24T11:24:59.955Z,12.00
2017-03-24T11:26:01.003Z,16.00
2017-03-24T11:27:01.793Z,13.00
2017-03-24T11:28:02.589Z,13.00
2017-03-24T11:29:03.384Z,14.00
2017-03-24T11:30:04.182Z,14.00
2017-03-24T11:31:05.226Z,15.00
2017-03-24T11:32:06.212Z,15.00
2017-03-24T11:33:07.009Z,14.00
2017-03-24T11:34:07.808Z,13.00
2017-03-24T11:35:08.600Z,16.00
2017-03-24T11:36:09.646Z,14.00
2017-03-24T11:37:10.439Z,12.00
2017-03-24T11:38:11.238Z,16.00
2017-03-24T11:39:12.032Z,14.00
2017-03-24T11:40:12.831Z,11.00
2017-03-24T11:41:13.879Z,11.00
2017-03-24T11:42:14.669Z,12.00
2017-03-24T11:43:15.465Z,14.00
2017-03-24T11:44:16.259Z,13.00
2017-03-24T11:45:17.053Z,12.00
2017-03-24T11:46:18.100Z,12.00
2017-03-24T11:47:18.897Z,14.00
2017-03-24T11:48:19.695Z,14.00
2017-03-24T11:49:20.490Z,13.00
2017-03-24T11:50:21.287Z,14.00
2017-03-24T11:51:22.329Z,14.00
2017-03-24T11:52:23.127Z,13.00
2017-03-24T11:53:23.927Z,12.00
2017-03-24T11:54:24.724Z,12.00
2017-03-24T11:55:25.521Z,13.00
2017-03-24T11:56:26.999Z,13.00
2017-03-24T11:57:27.727Z,12.00
2017-03-24T11:58:28.524Z,12.00
2017-03-24T11:59:29.323Z,12.00
2017-03-24T12:00:30.118Z,11.00
2017-03-24T12:01:31.167Z,10.00
2017-03-24T12:02:31.956Z,10.00
2017-03-24T12:03:32.750Z,11.00
2017-03-24T12:04:33.548Z,13.00
2017-03-24T12:05:34.341Z,10.00
2017-03-24T12:06:35.386Z,11.00
2017-03-24T12:07:36.180Z,11.00
2017-03-24T12:08:36.979Z,12.00
2017-03-24T12:09:37.774Z,12.00
2017-03-24T12:10:38.575Z,13.00
2017-03-24T12:11:39.619Z,12.00
2017-03-24T12:12:40.415Z,10.00
2017-03-24T12:13:41.208Z,11.00
2017-03-24T12:14:42.004Z,12.00
2017-03-24T12:15:42.802Z,11.00
2017-03-24T12:16:43.849Z,11.00
2017-03-24T12:17:44.641Z,12.00
2017-03-24T12:18:45.436Z,11.00
2017-03-24T12:19:46.418Z,9.00
2017-03-24T12:20:47.405Z,12.00
2017-03-24T12:21:48.454Z,10.00
2017-03-24T12:22:49.249Z,9.00
2017-03-24T12:23:50.047Z,10.00
2017-03-24T12:24:50.841Z,10.00
2017-03-24T12:25:51.636Z,11.00
2017-03-24T12:26:52.682Z,11.00
2017-03-24T12:27:53.476Z,9.00
2017-03-24T12:28:54.273Z,12.00
2017-03-24T12:29:55.068Z,9.00
2017-03-24T12:30:55.861Z,12.00
2017-03-24T12:31:56.915Z,11.00
2017-03-24T12:32:57.705Z,12.00
2017-03-24T12:33:58.504Z,10.00
2017-03-24T12:34:59.295Z,9.00
2017-03-24T12:36:00.091Z,13.00
2017-03-24T12:37:01.139Z,10.00
2017-03-24T12:38:01.944Z,10.00
2017-03-24T12:39:02.734Z,10.00
2017-03-24T12:40:03.529Z,13.00
2017-03-24T12:41:04.324Z,11.00
2017-03-24T12:42:05.369Z,10.00
2017-03-24T12:43:06.164Z,10.00
2017-03-24T12:44:06.964Z,10.00
2017-03-24T12:45:07.760Z,11.00
2017-03-24T12:46:08.555Z,9.00
2017-03-24T12:47:09.602Z,8.00
2017-03-24T12:48:10.400Z,13.00
2017-03-24T12:49:11.195Z,9.00
2017-03-24T12:50:11.993Z,9.00
2017-03-24T12:51:12.790Z,11.00
2017-03-24T12:52:13.838Z,10.00
2017-03-24T12:53:14.638Z,11.00
2017-03-24T12:54:15.433Z,9.00
2017-03-24T12:55:16.235Z,12.00
2017-03-24T12:56:17.030Z,11.00
2017-03-24T12:57:18.078Z,9.00
2017-03-24T12:58:18.875Z,10.00
2017-03-24T12:59:19.675Z,11.00
2017-03-24T13:00:20.470Z,11.00
2017-03-24T13:01:21.268Z,9.00
2017-03-24T13:02:22.310Z,9.00
2017-03-24T13:03:23.107Z,9.00
2017-03-24T13:04:23.904Z,10.00